CYBQ

Tadoule Lake Airport

Tadoule Lake, Manitoba, Canada
METAR CYBQ 220900Z AUTO 00000KT 9SM CLR M31/M34 A3035 RMK SLP326
Observed Flight Rules
Jan-22 @ 09:00 UTC (53 minutes ago) Visual Flight Rules
Wind Visibility Clouds
Calm 9 miles
  • Clear skies
Temperatures Readings
Current -31°C / -24°F
Dewpoint -34°C / -29°F
Humidity 75%
Altimeter 30.35" Hg
Pressure 1032.6 hPa
Elevation 262
METAR CYBQ 220900Z AUTO 00000KT 9SM CLR M31/M34 A3035 RMK SLP326
Observed Flight Rules
Jan-22 @ 09:00 UTC
(53 minutes ago)
VFR
Wind Visibility
Calm 9 miles
Clouds
  • Clear skies
Temperature Dewpoint
-31°C / -24°F -34°C / -29°F
Humidity Altimeter Pressure
75% 30.35" Hg 1032.6 hPa